• Join FlightAware (Why Join?)
  • Login
  • US Flag 
09:35AM EDT


 

Airport Tracker/Info


-or-


 

Live Flight TrackerFlight Track Log ✈ SWA1281 ✈ 08-May-2012 ✈ KBNA - KJAX

Flight Track Log - Related Links

Times and Time Zones

All times are in EDT time to prevent confusion due to time zone crossing. See the SWA1281 flight status page for this flight to view local times or setup timezone preferences in your user account.

Time Position Orientation Groundspeed Altitude Reporting Facility
EDT Latitude Longitude Course Direction KTS MPH feet Rate Location/Type
09:05AM 36.1000 -86.6833 168° South 183 211 1,400  Level Nashville TRACON
09:12AM 35.5658 -86.5389 138° Southeast 351 404 16,200 2,100 Climbing Memphis Center
09:14AM 35.4106 -86.3678 137° Southeast 358 412 19,500 1,800 Climbing Atlanta Center
09:15AM 35.3286 -86.2739 137° Southeast 385 443 21,500 2,160 Climbing Atlanta Center
09:16AM 35.2469 -86.1800 138° Southeast 397 457 23,900 1,980 Climbing Atlanta Center
09:17AM 35.1631 -86.0889 138° Southeast 404 465 25,600 1,740 Climbing Atlanta Center
09:18AM 35.0728 -85.9903 138° Southeast 409 471 27,400 1,560 Climbing Atlanta Center
09:19AM 34.9844 -85.8919 140° Southeast 420 483 28,800 1,500 Climbing Atlanta Center
09:20AM 34.8919 -85.7961 137° Southeast 433 498 30,500 1,800 Climbing Atlanta Center
09:21AM 34.8058 -85.6983 138° Southeast 433 498 32,500 1,200 Climbing Atlanta Center
09:22AM 34.7172 -85.6006 140° Southeast 433 498 33,000 240 Climbing Atlanta Center
09:23AM 34.6244 -85.5053 137° Southeast 433 498 33,000  Level Atlanta Center
09:24AM 34.5358 -85.4056 138° Southeast 433 498 33,000  Level Atlanta Center
09:25AM 34.4244 -85.2853 138° Southeast 433 498 33,000  Level Atlanta Center
09:26AM 34.3336 -85.1858 139° Southeast 433 498 33,000  Level Atlanta Center
09:27AM 34.2428 -85.0892 138° Southeast 438 504 33,000  Level Atlanta Center
09:28AM 34.1497 -84.9875 139° Southeast 449 517 33,000  Level Atlanta Center
09:29AM 34.0564 -84.8889 139° Southeast 449 517 33,000  Level Atlanta Center
09:30AM 33.9611 -84.7903 140° Southeast 449 517 33,000  Level Atlanta Center
09:31AM 33.8697 -84.6969 136° Southeast 449 517 33,000  Level Atlanta Center
09:32AM 33.7783 -84.5911 139° Southeast 449 517 33,000  Level Atlanta Center
09:33AM 33.6953 -84.5058 141° Southeast 449 517 33,000  Level Atlanta Center
09:34AM 33.5850 -84.4003 144° Southeast 455 524 33,000  Level Atlanta Center
09:35AM 33.4831 -84.3128 146° Southeast 461 531 33,000  Level Atlanta Center
09:36AM 33.3578 -84.2106 144° Southeast 461 531 33,000  Level Atlanta Center
09:37AM 33.2558 -84.1233 145° Southeast 455 524 33,000  Level Atlanta Center
09:38AM 33.1556 -84.0389 144° Southeast 449 517 33,000  Level Atlanta Center
09:39AM 33.0742 -83.9694 145° Southeast 444 511 33,000  Level Atlanta Center
09:40AM 32.9656 -83.8803 145° Southeast 444 511 33,000  Level Atlanta Center
09:42AM 32.7611 -83.7078 142° Southeast 480 552 33,000 -240 Level Jacksonville Center
09:44AM 32.5658 -83.5236 140° Southeast 456 525 32,200 -600 Descending Jacksonville Center
09:45AM 32.4681 -83.4269 138° Southeast 451 519 31,200 -1,020 Descending Jacksonville Center
09:46AM 32.3767 -83.3306 140° Southeast 446 513 30,200 -1,020 Descending Jacksonville Center
09:47AM 32.2789 -83.2342 140° Southeast 453 521 29,200 -960 Descending Jacksonville Center
09:48AM 32.1831 -83.1406 140° Southeast 453 521 28,300 -960 Descending Jacksonville Center
09:49AM 32.0850 -83.0447 141° Southeast 453 521 27,300 -660 Descending Jacksonville Center
09:50AM 32.0058 -82.9686 140° Southeast 453 521 27,000 -660 Descending Jacksonville Center
09:53AM 31.7092 -82.6753 151° Southeast 453 521 24,800 -840 Descending Jacksonville Center
09:54AM 31.6003 -82.6047 154° Southeast 448 516 23,700 -1,080 Descending Jacksonville Center
09:55AM 31.4939 -82.5442 153° Southeast 436 502 22,700 -2,040 Descending Jacksonville Center
09:58AM 31.1967 -82.3656 152° Southeast 382 440 15,700 -2,340 Descending Jacksonville Center
09:59AM 31.1067 -82.3103 151° Southeast 376 433 13,500 -2,280 Descending Jacksonville Center
10:00AM 31.0583 -82.2792 150° Southeast 361 415 12,200 -960 Descending Jacksonville Center
10:01AM 30.9706 -82.2192 144° Southeast 365 420 12,000 -540 Descending Jacksonville Center
10:02AM 30.8992 -82.1589 151° Southeast 334 384 11,200 -1,020 Descending Jacksonville Center
10:02AM 30.8594 -82.1328 155° Southeast 353 406 10,600 -1,320 Descending Jacksonville Center
10:03AM 30.8153 -82.1089 153° Southeast 317 365 9,900 -1,620 Descending Jacksonville Center
10:04AM 30.7419 -82.0658 153° Southeast 294 338 8,200 -1,860 Descending Jacksonville Center
10:05AM 30.6708 -82.0231 155° Southeast 287 330 6,200 -1,680 Descending Jacksonville Center
10:06AM 30.5889 -81.9781 155° Southeast 285 328 4,700 -1,380 Descending Jacksonville Center
10:07AM 30.5219 -81.9425 149° Southeast 273 314 3,300 -1,320 Descending Jacksonville Center
10:08AM 30.4547 -81.8950 88° East 262 302 2,000 -660 Descending Jacksonville Center
10:09AM 30.4564 -81.8297 72° East 215 247 2,000 -360 Level Jacksonville Center
10:10AM 30.4706 -81.7792 71° East 184 212 1,400 -780 Descending Jacksonville Center
10:11AM 30.4867 -81.7258 77° East 145 167 500 -840 Descending Jacksonville Center
10:18AM 30.6518 -80.8620 77° East  Level Estimated